Time;durP1;ratioP1;P1;durP2;ratioP2;P2;SDS_P1;SDS_P2;PMS_P1;PMS_P2;Temp;Humidity;BMP_temperature;BMP_pressure;BME280_temperature;BME280_humidity;BME280_pressure;Samples;Min_cycle;Max_cycle;Signal;HPM_P1;HPM_P2
2022/09/24 00:01:26;;;;;;;4.72;2.70;;;;;;;16.68;83.72;100596.06;5053322;28;20124;-66
2022/09/24 00:03:55;;;;;;;4.80;2.90;;;;;;;16.56;84.62;100590.28;5056332;28;20101;-66
2022/09/24 00:06:21;;;;;;;5.22;3.00;;;;;;;16.57;84.23;100594.56;5060384;28;20039;-66
2022/09/24 00:08:49;;;;;;;4.18;2.85;;;;;;;16.61;84.20;100598.00;5035693;28;20029;-66
2022/09/24 00:11:16;;;;;;;5.85;2.95;;;;;;;16.62;83.96;100600.34;5024498;28;20112;-66
2022/09/24 00:13:42;;;;;;;4.97;3.08;;;;;;;16.54;84.68;100608.94;5064205;28;20161;-66
2022/09/24 00:16:10;;;;;;;5.05;2.72;;;;;;;16.53;85.44;100607.41;5049362;28;20558;-66
2022/09/24 00:18:37;;;;;;;7.38;3.00;;;;;;;16.41;86.24;100595.00;5030332;28;20040;-66
2022/09/24 00:21:29;;;;;;;4.60;2.92;;;;;;;16.45;85.92;100592.25;5037753;28;20388;-66
2022/09/24 00:23:57;;;;;;;5.10;3.13;;;;;;;16.50;84.82;100592.66;5052739;28;20164;-66
2022/09/24 00:29:09;;;;;;;3.97;2.88;;;;;;;16.41;85.52;100586.84;5052949;28;20091;-66
2022/09/24 00:31:35;;;;;;;4.70;2.72;;;;;;;16.34;85.67;100586.09;5032983;28;20413;-66
2022/09/24 00:34:01;;;;;;;4.18;2.78;;;;;;;16.30;86.06;100586.09;5050489;28;20036;-66
2022/09/24 00:36:27;;;;;;;6.22;2.88;;;;;;;16.36;86.09;100592.66;5053792;28;20055;-66
2022/09/24 00:38:55;;;;;;;4.85;2.80;;;;;;;16.42;85.77;100588.38;5052508;28;20048;-66
2022/09/24 00:41:23;;;;;;;4.95;2.88;;;;;;;16.32;86.18;100580.28;5051872;28;20367;-66
2022/09/24 00:43:50;;;;;;;4.20;2.28;;;;;;;16.32;86.63;100585.72;5058442;28;20093;-66
2022/09/24 00:46:18;;;;;;;5.20;3.20;;;;;;;16.36;86.81;100581.00;5035235;28;20036;-66
2022/09/24 00:48:47;;;;;;;6.88;2.90;;;;;;;16.42;85.61;100582.94;5052557;28;20094;-66
2022/09/24 00:51:20;;;;;;;3.50;2.40;;;;;;;16.28;86.62;100581.06;5043361;28;20029;-66
2022/09/24 00:53:48;;;;;;;4.22;2.70;;;;;;;16.22;87.07;100579.91;5031567;28;20060;-66
2022/09/24 00:56:15;;;;;;;5.25;2.95;;;;;;;16.20;86.88;100584.22;5052786;28;20392;-66
2022/09/24 00:58:50;;;;;;;4.45;2.72;;;;;;;16.22;86.90;100574.47;5031005;28;20029;-66
2022/09/24 01:01:18;;;;;;;4.60;2.83;;;;;;;16.19;87.19;100575.28;5031394;28;20060;-66
2022/09/24 01:03:44;;;;;;;6.68;3.00;;;;;;;16.15;87.35;100571.81;5046997;28;20120;-66
2022/09/24 01:06:10;;;;;;;3.63;2.03;;;;;;;16.20;87.55;100570.63;5052626;28;20158;-66
2022/09/24 01:08:36;;;;;;;4.88;2.90;;;;;;;16.31;86.64;100573.28;5049575;28;20558;-66
2022/09/24 01:11:20;;;;;;;4.25;2.42;;;;;;;16.20;86.35;100576.81;5050997;28;20766;-66
2022/09/24 01:13:46;;;;;;;4.18;2.80;;;;;;;16.14;86.43;100570.22;5052054;28;20040;-66
2022/09/24 01:16:37;;;;;;;3.20;2.25;;;;;;;16.23;86.14;100576.03;5052303;28;20098;-66
2022/09/24 01:19:27;;;;;;;4.85;2.88;;;;;;;16.15;86.30;100566.38;5055577;28;20037;-66
2022/09/24 01:22:07;;;;;;;4.70;2.47;;;;;;;16.22;85.77;100560.88;5049689;28;20033;-66
2022/09/24 01:24:59;;;;;;;4.88;2.72;;;;;;;16.12;86.12;100564.41;5051481;28;20477;-65
2022/09/24 01:27:51;;;;;;;4.45;2.50;;;;;;;15.99;86.88;100567.97;5052265;28;20040;-66
2022/09/24 01:30:17;;;;;;;4.15;2.58;;;;;;;16.06;86.32;100562.53;5047983;28;20098;-66
2022/09/24 01:32:48;;;;;;;4.10;2.50;;;;;;;16.11;86.10;100565.59;5047478;28;20037;-65
2022/09/24 01:35:48;;;;;;;2.72;2.35;;;;;;;16.12;86.25;100572.56;5031494;28;20505;-67
2022/09/24 01:38:18;;;;;;;4.07;2.35;;;;;;;16.01;86.42;100555.53;5060274;28;20044;-66
2022/09/24 01:40:45;;;;;;;5.45;2.92;;;;;;;16.05;86.18;100567.16;5045649;28;20052;-66
2022/09/24 01:43:13;;;;;;;4.10;2.30;;;;;;;16.05;86.32;100567.16;5051150;28;20033;-66
2022/09/24 01:45:39;;;;;;;4.60;2.63;;;;;;;16.03;86.08;100561.34;5050627;28;20093;-66
2022/09/24 01:48:06;;;;;;;3.45;2.53;;;;;;;16.03;86.75;100553.19;5051406;28;20047;-66
2022/09/24 01:50:47;;;;;;;3.97;2.63;;;;;;;16.02;87.15;100550.88;5051485;28;20025;-66
2022/09/24 01:53:22;;;;;;;4.05;2.55;;;;;;;15.95;87.59;100546.25;5016755;28;20424;-66
2022/09/24 01:55:53;;;;;;;3.70;2.63;;;;;;;15.89;87.93;100549.78;5037158;28;20075;-65
2022/09/24 01:58:47;;;;;;;6.45;3.20;;;;;;;15.94;87.78;100546.66;5033604;28;20409;-66
2022/09/24 02:01:30;;;;;;;5.47;2.92;;;;;;;15.94;87.92;100544.72;5016403;28;20033;-66
2022/09/24 02:03:58;;;;;;;4.60;2.72;;;;;;;15.96;87.49;100542.38;5051475;28;20083;-66
2022/09/24 02:06:32;;;;;;;5.43;3.20;;;;;;;16.01;87.18;100549.31;5058239;28;20044;-66
2022/09/24 02:08:58;;;;;;;5.35;3.25;;;;;;;15.96;87.08;100547.81;5048076;28;20040;-66
2022/09/24 02:11:25;;;;;;;3.80;2.72;;;;;;;15.96;87.44;100547.81;5049448;28;20036;-66
2022/09/24 02:14:12;;;;;;;4.75;2.78;;;;;;;15.94;87.22;100538.50;5050660;28;20143;-66
2022/09/24 02:16:44;;;;;;;5.25;2.80;;;;;;;15.95;87.30;100548.22;5033553;28;20563;-66
2022/09/24 02:19:12;;;;;;;;;;;;;;;15.90;87.22;100549.38;5044677;28;20139;-66
2022/09/24 02:21:40;;;;;;;5.50;2.92;;;;;;;15.95;87.48;100545.50;5058506;28;19916;-66
2022/09/24 02:24:17;;;;;;;5.22;3.33;;;;;;;16.02;87.01;100550.88;5053886;28;20075;-66
2022/09/24 02:26:43;;;;;;;7.70;3.60;;;;;;;15.95;87.54;100542.78;5037677;28;20037;-66
2022/09/24 02:29:09;;;;;;;5.50;3.30;;;;;;;15.90;87.44;100543.94;5036499;28;20091;-66
2022/09/24 02:31:39;;;;;;;4.18;3.13;;;;;;;15.86;87.62;100548.59;5040952;28;20033;-66
2022/09/24 02:34:21;;;;;;;8.07;3.03;;;;;;;15.91;87.64;100544.72;5050111;28;20496;-66
2022/09/24 02:37:04;;;;;;;5.07;3.35;;;;;;;15.89;87.72;100545.09;5048006;28;20044;-66
2022/09/24 02:39:29;;;;;;;11.20;3.35;;;;;;;15.88;87.90;100549.00;5056065;28;20080;-66
2022/09/24 02:41:57;;;;;;;5.65;3.50;;;;;;;15.88;88.04;100548.22;5049958;28;20037;-66
2022/09/24 02:44:23;;;;;;;6.20;3.22;;;;;;;15.86;87.97;100547.81;5032221;28;20094;-66
2022/09/24 02:46:49;;;;;;;5.35;3.20;;;;;;;15.96;87.43;100536.94;5042692;28;20116;-66
2022/09/24 02:49:14;;;;;;;4.55;3.00;;;;;;;15.89;87.96;100539.66;5032340;28;20071;-66
2022/09/24 02:51:42;;;;;;;5.07;3.30;;;;;;;15.90;87.74;100537.72;5049585;28;20037;-65
2022/09/24 02:54:08;;;;;;;4.85;3.15;;;;;;;15.88;88.06;100529.19;5052970;28;20043;-65
2022/09/24 02:56:54;;;;;;;5.30;3.03;;;;;;;15.84;88.33;100531.16;5052747;28;20115;-65
2022/09/24 02:59:19;;;;;;;4.22;3.13;;;;;;;15.88;88.21;100527.25;4933939;29;20050;-66
2022/09/24 03:01:45;;;;;;;4.78;3.38;;;;;;;15.88;88.09;100527.25;4947036;28;20428;-67
2022/09/24 03:04:11;;;;;;;4.47;2.88;;;;;;;15.88;88.40;100529.19;4909225;28;20138;-66
2022/09/24 03:06:37;;;;;;;4.50;3.30;;;;;;;15.96;87.55;100534.22;4950081;28;20043;-66
2022/09/24 03:09:03;;;;;;;8.23;3.78;;;;;;;15.90;87.76;100533.06;4948192;29;20050;-66
2022/09/24 03:11:31;;;;;;;7.88;3.80;;;;;;;15.84;87.88;100531.94;4949511;29;20534;-66
2022/09/24 03:13:58;;;;;;;5.32;3.35;;;;;;;15.79;88.51;100535.06;4949189;29;20042;-66
2022/09/24 03:16:23;;;;;;;5.10;2.83;;;;;;;15.74;88.76;100535.44;4933929;29;20217;-66
2022/09/24 03:18:49;;;;;;;4.20;2.97;;;;;;;15.76;89.13;100537.75;4949929;29;20051;-66
2022/09/24 03:21:18;;;;;;;6.53;3.53;;;;;;;15.74;89.02;100540.88;4932334;29;20035;-66
2022/09/24 03:23:43;;;;;;;5.75;3.45;;;;;;;15.74;89.19;100534.66;4933137;29;20055;-66
2022/09/24 03:26:09;;;;;;;4.70;3.20;;;;;;;15.74;89.08;100540.88;4950043;29;20039;-65
2022/09/24 03:28:35;;;;;;;6.05;3.50;;;;;;;15.78;88.87;100546.28;4946839;29;20886;-66
2022/09/24 03:31:00;;;;;;;6.53;3.97;;;;;;;15.83;88.86;100532.34;4938776;28;20075;-66
2022/09/24 03:33:32;;;;;;;5.03;3.40;;;;;;;15.81;88.93;100542.81;4951195;28;20094;-65
2022/09/24 03:35:58;;;;;;;5.05;3.38;;;;;;;15.83;88.82;100532.34;4976702;28;20053;-66
2022/09/24 03:38:25;;;;;;;5.93;3.53;;;;;;;15.80;88.58;100538.53;5042305;28;20044;-65
2022/09/24 03:40:51;;;;;;;6.50;3.75;;;;;;;15.74;88.95;100540.88;5051867;28;20029;-66
2022/09/24 03:43:16;;;;;;;6.07;3.22;;;;;;;15.82;89.10;100541.63;5037926;28;20033;-65
2022/09/24 03:45:42;;;;;;;5.07;3.38;;;;;;;15.76;88.56;100535.81;5049631;28;20505;-66
2022/09/24 03:48:07;;;;;;;6.43;4.00;;;;;;;15.77;88.59;100540.09;5026397;28;20485;-66
2022/09/24 03:50:37;;;;;;;5.70;3.03;;;;;;;15.76;88.76;100530.41;5057252;28;20051;-66
2022/09/24 03:53:02;;;;;;;7.05;3.47;;;;;;;15.73;89.13;100536.63;5041430;28;20478;-66
2022/09/24 03:55:27;;;;;;;7.25;3.15;;;;;;;15.71;88.90;100532.75;5049343;28;20070;-66
2022/09/24 03:57:53;;;;;;;5.90;3.30;;;;;;;15.71;88.84;100533.53;5028693;28;20391;-66
2022/09/24 04:00:18;;;;;;;5.70;3.30;;;;;;;15.64;89.05;100530.81;5025529;28;20397;-66
2022/09/24 04:02:44;;;;;;;7.05;3.15;;;;;;;15.66;89.07;100527.72;5047721;28;20029;-66
2022/09/24 04:05:10;;;;;;;6.80;3.55;;;;;;;15.70;89.27;100529.25;5030687;28;20198;-66
2022/09/24 04:07:36;;;;;;;5.85;2.90;;;;;;;15.70;89.74;100520.34;5035518;28;20524;-66
2022/09/24 04:10:01;;;;;;;5.75;3.00;;;;;;;15.65;89.91;100520.72;5055079;28;20025;-66
2022/09/24 04:12:28;;;;;;;4.70;3.25;;;;;;;15.63;90.05;100528.50;5047434;28;20502;-66
2022/09/24 04:14:54;;;;;;;8.32;3.58;;;;;;;15.64;90.17;100519.94;5032339;28;20045;-66
2022/09/24 04:17:19;;;;;;;3.90;2.65;;;;;;;15.67;90.25;100524.63;5062328;28;20020;-66
2022/09/24 04:19:45;;;;;;;5.18;3.08;;;;;;;15.75;89.80;100520.72;5051887;28;20078;-66
2022/09/24 04:22:10;;;;;;;3.35;2.90;;;;;;;15.72;89.78;100526.91;5047947;28;20443;-66
2022/09/24 04:24:35;;;;;;;5.05;3.15;;;;;;;15.81;89.22;100518.38;5052771;28;20382;-66
2022/09/24 04:27:01;;;;;;;5.20;3.22;;;;;;;15.76;89.50;100519.53;5053629;28;20040;-66
2022/09/24 04:29:26;;;;;;;6.25;3.50;;;;;;;15.74;89.70;100518.38;5044422;28;20048;-66
2022/09/24 04:31:52;;;;;;;10.93;3.15;;;;;;;15.73;89.71;100517.63;5048175;28;20037;-67
2022/09/24 04:34:17;;;;;;;6.22;3.63;;;;;;;15.89;88.90;100519.91;5052254;28;20116;-66
2022/09/24 04:36:42;;;;;;;3.78;2.85;;;;;;;15.78;89.52;100514.50;5050728;28;20036;-66
2022/09/24 04:39:09;;;;;;;6.68;3.97;;;;;;;15.75;90.11;100512.56;5061228;28;20090;-66
2022/09/24 04:41:36;;;;;;;5.85;3.30;;;;;;;15.71;90.50;100511.03;5052941;28;20021;-66
2022/09/24 04:44:04;;;;;;;6.05;3.80;;;;;;;15.63;91.50;100521.13;5048764;28;20029;-66
2022/09/24 04:46:32;;;;;;;5.75;4.00;;;;;;;15.60;91.73;100505.59;5053108;28;20058;-66
2022/09/24 04:48:57;;;;;;;8.27;4.22;;;;;;;15.67;91.48;100516.47;5061181;28;20060;-66
2022/09/24 04:51:23;;;;;;;8.95;3.85;;;;;;;15.69;91.73;100510.63;5052802;28;20079;-66
2022/09/24 04:53:49;;;;;;;9.00;4.03;;;;;;;15.58;92.02;100513.38;5042403;28;20124;-66
2022/09/24 04:56:15;;;;;;;8.65;4.35;;;;;;;15.57;92.20;100511.84;5064100;28;20029;-66
2022/09/24 04:58:40;;;;;;;6.53;3.70;;;;;;;15.49;92.13;100510.28;5056753;28;20036;-66
2022/09/24 05:01:06;;;;;;;9.40;4.28;;;;;;;15.56;91.68;100513.00;5028473;28;20490;-66
2022/09/24 05:03:32;;;;;;;6.43;4.10;;;;;;;15.49;92.41;100515.72;5059394;28;20108;-66
2022/09/24 05:05:57;;;;;;;5.65;3.40;;;;;;;15.54;91.92;100514.56;5065010;28;20068;-66
2022/09/24 05:08:23;;;;;;;6.30;4.03;;;;;;;15.54;91.98;100514.56;5026415;28;20037;-66
2022/09/24 05:10:48;;;;;;;7.47;3.50;;;;;;;15.47;92.66;100512.63;5051860;28;20044;-66
2022/09/24 05:13:14;;;;;;;6.90;4.38;;;;;;;15.50;92.57;100511.84;5053114;28;20033;-66
2022/09/24 05:15:39;;;;;;;7.03;3.85;;;;;;;15.58;92.61;100504.47;5055983;28;20071;-66
2022/09/24 05:18:05;;;;;;;7.13;4.15;;;;;;;15.48;93.01;100507.97;5052278;28;20032;-66
2022/09/24 05:20:33;;;;;;;8.05;4.15;;;;;;;15.52;92.91;100509.53;5052119;28;20032;-66
2022/09/24 05:22:58;;;;;;;10.18;4.57;;;;;;;15.52;93.34;100520.38;5044736;28;20132;-66
2022/09/24 05:25:24;;;;;;;7.13;3.85;;;;;;;15.54;93.31;100511.84;5051026;28;20060;-67
2022/09/24 05:27:51;;;;;;;8.55;4.43;;;;;;;15.29;93.86;100512.63;5052334;28;20033;-66
2022/09/24 05:30:18;;;;;;;7.90;4.55;;;;;;;15.27;93.59;100508.78;5056137;28;20129;-66
2022/09/24 05:32:44;;;;;;;8.43;4.70;;;;;;;15.31;94.25;100512.25;5059361;28;20029;-66
2022/09/24 05:35:09;;;;;;;10.45;4.65;;;;;;;15.11;94.75;100498.31;5047055;28;20409;-66
2022/09/24 05:37:37;;;;;;;10.50;4.72;;;;;;;15.13;94.63;100511.47;5041622;28;20059;-66
2022/09/24 05:42:49;;;;;;;7.40;4.50;;;;;;;15.15;94.81;100509.16;5051142;28;20052;-66
2022/09/24 05:45:16;;;;;;;8.38;4.65;;;;;;;15.09;94.89;100511.50;5033517;28;20478;-66
2022/09/24 05:47:45;;;;;;;11.48;5.18;;;;;;;15.25;94.42;100509.13;5059679;28;20041;-66
2022/09/24 05:50:12;;;;;;;9.45;5.07;;;;;;;15.21;95.11;100502.94;5053080;28;20036;-66
2022/09/24 05:52:41;;;;;;;8.00;4.55;;;;;;;15.30;95.16;100514.19;5051242;28;20087;-66
2022/09/24 05:55:09;;;;;;;11.05;4.75;;;;;;;15.35;95.22;100516.50;5050984;28;20040;-66
2022/09/24 05:57:35;;;;;;;8.63;4.53;;;;;;;15.47;94.71;100520.78;5050871;28;20033;-66
2022/09/24 06:00:00;;;;;;;11.10;4.97;;;;;;;15.28;95.39;100521.94;5051429;28;20575;-66
2022/09/24 06:02:26;;;;;;;8.15;4.90;;;;;;;15.42;95.31;100520.41;5031294;28;20121;-66
2022/09/24 06:04:51;;;;;;;11.40;5.93;;;;;;;15.52;95.02;100528.53;5049203;28;20033;-66
2022/09/24 06:07:17;;;;;;;13.75;4.80;;;;;;;15.52;94.88;100531.25;5053629;28;20112;-66
2022/09/24 06:09:43;;;;;;;8.75;5.03;;;;;;;15.29;95.25;100522.72;5033488;28;20066;-66
2022/09/24 06:12:09;;;;;;;9.45;4.80;;;;;;;15.27;96.58;100525.81;5029102;28;20025;-66
2022/09/24 06:14:35;;;;;;;9.57;5.15;;;;;;;15.42;97.01;100529.31;5045254;28;20060;-66
2022/09/24 06:17:01;;;;;;;9.15;5.40;;;;;;;15.43;96.65;100528.13;5060198;28;20036;-66
2022/09/24 06:19:26;;;;;;;9.77;5.80;;;;;;;15.53;94.66;100530.06;5050796;28;20028;-67
2022/09/24 06:21:52;;;;;;;12.60;6.00;;;;;;;15.52;95.12;100525.03;5049551;28;20032;-66
2022/09/24 06:24:17;;;;;;;10.18;5.90;;;;;;;15.54;95.69;100526.19;5050569;28;20075;-66
2022/09/24 06:26:42;;;;;;;12.18;6.47;;;;;;;15.48;95.55;100522.34;5051080;28;20032;-66
2022/09/24 06:29:08;;;;;;;15.63;6.93;;;;;;;15.46;96.28;100529.31;5044095;28;20037;-67
2022/09/24 06:31:33;;;;;;;12.10;6.55;;;;;;;15.44;96.47;100537.84;5038137;28;20040;-66
2022/09/24 06:33:59;;;;;;;12.32;6.32;;;;;;;15.30;97.11;100529.69;5056226;28;20111;-66
2022/09/24 06:36:25;;;;;;;13.07;6.80;;;;;;;15.35;97.01;100529.28;5020788;28;20075;-66
2022/09/24 06:38:51;;;;;;;12.65;6.40;;;;;;;15.40;96.27;100537.03;5045159;28;20028;-66
2022/09/24 06:41:17;;;;;;;11.60;6.55;;;;;;;15.43;96.65;100530.84;5057772;28;20021;-66
2022/09/24 06:43:42;;;;;;;14.90;6.68;;;;;;;15.46;96.93;100532.81;5049892;28;20033;-66
2022/09/24 06:46:08;;;;;;;10.80;6.38;;;;;;;15.18;97.87;100532.78;5036585;28;20071;-66
2022/09/24 06:48:33;;;;;;;16.10;6.43;;;;;;;15.33;97.80;100535.09;5059891;28;20492;-66
2022/09/24 06:50:59;;;;;;;13.85;7.03;;;;;;;15.33;97.70;100526.19;5051077;28;20059;-66
2022/09/24 06:53:24;;;;;;;12.55;5.85;;;;;;;15.43;97.67;100536.28;5032560;28;20041;-66
2022/09/24 06:55:50;;;;;;;13.98;6.05;;;;;;;15.58;96.68;100537.81;5045851;28;20452;-66
2022/09/24 06:58:19;;;;;;;17.40;5.78;;;;;;;15.20;98.14;100533.19;5048782;28;20590;-66
2022/09/24 07:01:01;;;;;;;13.82;6.50;;;;;;;15.17;98.61;100539.38;5045600;28;20040;-66
2022/09/24 07:03:28;;;;;;;13.23;6.65;;;;;;;15.33;98.56;100545.16;5043563;28;20078;-66
2022/09/24 07:05:54;;;;;;;11.95;6.35;;;;;;;15.45;97.51;100544.06;5055096;28;20062;-66
2022/09/24 07:08:20;;;;;;;12.35;6.25;;;;;;;15.50;97.47;100547.16;5061073;28;20056;-66
2022/09/24 07:10:51;;;;;;;14.38;6.55;;;;;;;15.40;97.70;100547.91;5048148;28;20048;-66
2022/09/24 07:13:17;;;;;;;14.83;6.57;;;;;;;15.25;98.78;100549.06;5041286;28;20041;-66
2022/09/24 07:15:43;;;;;;;14.40;6.22;;;;;;;15.43;98.45;100547.13;5059663;28;20696;-66
2022/09/24 07:18:09;;;;;;;13.23;6.20;;;;;;;15.48;98.19;100543.25;5050215;28;20457;-66
2022/09/24 07:20:38;;;;;;;18.20;7.03;;;;;;;15.39;99.02;100546.34;5048998;28;20067;-66
2022/09/24 07:23:08;;;;;;;13.93;7.03;;;;;;;15.33;99.35;100542.47;5031114;28;20055;-66
2022/09/24 07:25:34;;;;;;;12.07;6.50;;;;;;;15.33;99.51;100540.53;5049110;28;20265;-66
2022/09/24 07:28:05;;;;;;;11.73;6.05;;;;;;;15.29;99.76;100552.56;5048892;28;20029;-66
2022/09/24 07:30:32;;;;;;;11.60;6.07;;;;;;;15.40;100.00;100547.91;5046755;28;20066;-66
2022/09/24 07:32:58;;;;;;;12.52;5.78;;;;;;;15.39;100.00;100554.47;5051248;28;20048;-66
2022/09/24 07:35:25;;;;;;;14.85;6.43;;;;;;;15.49;99.53;100551.00;5048015;28;20037;-66
2022/09/24 07:37:57;;;;;;;13.48;6.90;;;;;;;15.51;99.94;100558.75;5045888;28;20401;-66
2022/09/24 07:40:23;;;;;;;12.27;6.30;;;;;;;15.54;100.00;100560.72;5050618;28;20086;-66
2022/09/24 07:42:48;;;;;;;12.23;5.78;;;;;;;15.56;99.98;100561.88;5039890;28;20025;-66
2022/09/24 07:45:16;;;;;;;11.48;5.78;;;;;;;15.63;99.95;100553.72;5044853;28;20162;-66
2022/09/24 07:47:42;;;;;;;11.85;5.20;;;;;;;15.54;99.30;100561.50;5051961;28;20409;-66
2022/09/24 07:50:08;;;;;;;12.60;6.07;;;;;;;15.55;100.00;100559.53;5049425;28;20036;-66
2022/09/24 07:52:34;;;;;;;11.10;5.22;;;;;;;15.69;99.87;100573.88;5047435;28;20041;-66
2022/09/24 07:55:00;;;;;;;10.63;5.72;;;;;;;15.63;99.26;100563.78;5052112;28;20032;-66
2022/09/24 07:57:26;;;;;;;12.98;5.65;;;;;;;15.52;99.49;100561.09;5035751;28;20059;-66
2022/09/24 07:59:52;;;;;;;11.48;5.22;;;;;;;15.61;99.99;100568.84;5047578;28;20040;-66
2022/09/24 08:02:19;;;;;;;11.95;4.93;;;;;;;15.72;98.37;100570.38;5048732;28;20440;-66
2022/09/24 08:04:44;;;;;;;10.70;5.65;;;;;;;15.45;99.57;100569.25;5052111;28;20037;-66
2022/09/24 08:07:11;;;;;;;10.48;5.80;;;;;;;15.19;100.00;100566.91;5053771;28;20048;-66
2022/09/24 08:09:37;;;;;;;10.45;5.30;;;;;;;15.16;100.00;100570.38;5045996;28;20037;-66
2022/09/24 08:12:03;;;;;;;8.77;5.30;;;;;;;15.22;100.00;100569.63;5044622;28;20064;-66
2022/09/24 08:14:28;;;;;;;10.18;5.70;;;;;;;14.96;100.00;100566.50;5057912;28;20037;-66
2022/09/24 08:16:54;;;;;;;11.98;5.35;;;;;;;15.21;100.00;100572.72;5052808;28;20033;-66
2022/09/24 08:19:19;;;;;;;11.70;5.82;;;;;;;15.32;100.00;100578.91;5052496;28;20454;-66
2022/09/24 08:21:47;;;;;;;11.63;5.28;;;;;;;15.22;100.00;100579.69;5048803;28;20033;-66
2022/09/24 08:24:14;;;;;;;12.68;5.60;;;;;;;15.16;100.00;100581.22;5051505;28;20481;-66
2022/09/24 08:26:40;;;;;;;11.68;5.95;;;;;;;15.08;100.00;100577.75;5050526;28;20392;-66
2022/09/24 08:29:05;;;;;;;14.05;5.78;;;;;;;15.21;100.00;100575.44;5032237;28;20119;-66
2022/09/24 08:31:32;;;;;;;14.65;6.78;;;;;;;15.42;100.00;100583.59;5045964;28;20044;-66
2022/09/24 08:33:58;;;;;;;14.63;6.35;;;;;;;15.43;100.00;100578.94;5039342;28;20463;-66
2022/09/24 08:36:23;;;;;;;13.05;6.15;;;;;;;15.43;100.00;100573.53;5029978;28;20036;-66
2022/09/24 08:38:55;;;;;;;12.70;5.75;;;;;;;15.53;100.00;100578.94;5051288;28;20506;-66
2022/09/24 08:41:46;;;;;;;10.10;6.07;;;;;;;15.54;100.00;100571.56;5053407;28;20067;-66
2022/09/24 08:47:21;;;;;;;12.60;6.20;;;;;;;15.75;100.00;100577.75;5024886;28;20091;-66
2022/09/24 08:47:22;;;;;;;13.18;6.68;;;;;;;15.84;100.00;100582.75;5047378;28;20493;-66
2022/09/24 08:49:53;;;;;;;14.88;6.75;;;;;;;15.73;99.88;100576.56;5044195;28;20036;-66
2022/09/24 08:52:53;;;;;;;13.48;6.07;;;;;;;15.52;100.00;100582.03;5047664;28;20037;-65
2022/09/24 08:55:45;;;;;;;14.38;7.25;;;;;;;15.58;100.00;100592.09;4970383;28;20110;-65
2022/09/24 08:58:19;;;;;;;13.85;6.95;;;;;;;15.59;100.00;100587.44;5039038;28;20127;-66
2022/09/24 09:00:54;;;;;;;16.80;7.28;;;;;;;15.70;100.00;100588.97;5048320;28;20481;-66
2022/09/24 09:03:35;;;;;;;14.05;6.63;;;;;;;15.62;100.00;100587.44;5051483;28;20060;-66
2022/09/24 09:06:31;;;;;;;16.50;6.30;;;;;;;15.52;100.00;100593.69;5052537;28;20071;-66
2022/09/24 09:09:06;;;;;;;15.82;6.75;;;;;;;15.55;100.00;100584.75;5046082;28;20024;-66
2022/09/24 09:11:34;;;;;;;16.88;7.28;;;;;;;15.57;100.00;100593.28;5050985;28;20036;-66
2022/09/24 09:14:11;;;;;;;15.63;6.80;;;;;;;15.50;100.00;100593.28;5054946;28;20068;-66
2022/09/24 09:17:00;;;;;;;15.13;7.38;;;;;;;15.70;100.00;100594.41;5044931;28;20069;-66
2022/09/24 09:19:32;;;;;;;17.42;6.72;;;;;;;15.80;100.00;100592.84;5054885;28;20091;-66
2022/09/24 09:22:13;;;;;;;17.13;6.63;;;;;;;15.85;100.00;100593.22;5051708;28;20043;-66
2022/09/24 09:24:52;;;;;;;14.07;6.10;;;;;;;15.51;100.00;100594.81;5032148;28;20036;-66
2022/09/24 09:27:19;;;;;;;14.93;6.53;;;;;;;15.59;100.00;100596.38;5051639;28;20032;-66
2022/09/24 09:29:55;;;;;;;13.27;6.85;;;;;;;15.70;100.00;100590.94;5046303;28;20061;-66
2022/09/24 09:33:02;;;;;;;16.13;7.07;;;;;;;15.75;100.00;100596.75;5050326;28;21802;-65
2022/09/24 09:35:50;;;;;;;13.43;6.13;;;;;;;15.81;100.00;100592.47;5016182;28;20397;-66
2022/09/24 09:38:26;;;;;;;13.98;5.45;;;;;;;15.89;100.00;100591.28;5047709;28;20081;-66
2022/09/24 09:41:01;;;;;;;11.75;6.47;;;;;;;15.86;100.00;100592.06;5049264;28;20035;-66
2022/09/24 09:43:27;;;;;;;15.73;6.50;;;;;;;15.81;100.00;100583.53;5048661;28;20041;-66
2022/09/24 09:46:17;;;;;;;14.00;6.78;;;;;;;15.66;100.00;100593.66;5051861;28;20036;-66
2022/09/24 09:48:43;;;;;;;16.35;6.75;;;;;;;15.75;100.00;100585.88;5047774;22;20074;-69
2022/09/24 09:51:16;;;;;;;12.13;6.00;;;;;;;15.66;100.00;100588.22;5010260;28;20146;-69
2022/09/24 09:53:53;;;;;;;17.40;7.35;;;;;;;15.69;100.00;100595.59;5006159;28;20037;-68
2022/09/24 09:56:23;;;;;;;17.20;6.70;;;;;;;15.67;100.00;100589.78;4998164;28;20036;-69
2022/09/24 09:58:52;;;;;;;13.68;6.13;;;;;;;15.73;100.00;100590.94;5005098;28;20093;-68
2022/09/24 10:01:18;;;;;;;14.80;7.05;;;;;;;15.88;100.00;100588.94;5024810;28;20021;-69
2022/09/24 10:03:45;;;;;;;18.33;7.13;;;;;;;15.80;100.00;100590.13;4995388;28;20406;-68
2022/09/24 10:06:27;;;;;;;20.65;6.05;;;;;;;15.69;100.00;100592.88;4973622;28;20042;-68
2022/09/24 10:08:53;;;;;;;16.42;7.03;;;;;;;15.89;100.00;100593.22;5004656;28;20406;-68
2022/09/24 10:11:21;;;;;;;15.52;6.90;;;;;;;15.76;100.00;100587.44;5011938;28;20030;-68
2022/09/24 10:13:46;;;;;;;19.80;8.50;;;;;;;15.81;100.00;100606.06;5016356;28;20048;-68
2022/09/24 10:16:14;;;;;;;14.38;6.82;;;;;;;15.72;100.00;100599.44;5012805;28;20113;-68
2022/09/24 10:18:47;;;;;;;14.70;6.72;;;;;;;15.83;100.00;100598.25;5015375;28;20521;-68
2022/09/24 10:21:34;;;;;;;21.15;7.13;;;;;;;15.92;100.00;100592.44;5011227;28;20060;-69
2022/09/24 10:24:03;;;;;;;14.30;6.43;;;;;;;15.83;100.00;100592.06;5009012;28;20034;-69
2022/09/24 10:26:42;;;;;;;16.52;6.85;;;;;;;15.67;100.00;100594.44;5011757;28;20037;-69
2022/09/24 10:32:00;;;;;;;;;;;;;;;15.79;100.00;100592.09;5009567;28;20030;-68
2022/09/24 10:34:27;;;;;;;16.05;6.82;;;;;;;15.97;100.00;100592.03;5002667;28;19913;-68
2022/09/24 10:37:00;;;;;;;19.15;7.05;;;;;;;15.97;100.00;100592.81;5003738;28;20045;-69
2022/09/24 10:39:26;;;;;;;16.30;7.15;;;;;;;16.03;100.00;100587.75;5006416;28;20038;-68
2022/09/24 10:41:55;;;;;;;15.13;7.28;;;;;;;16.09;100.00;100594.31;5004784;28;20088;-69
2022/09/24 10:44:22;;;;;;;17.77;7.60;;;;;;;16.13;100.00;100595.88;5008156;28;20050;-68
2022/09/24 10:47:03;;;;;;;17.60;7.28;;;;;;;16.25;100.00;100592.72;5009224;28;20385;-68
2022/09/24 10:49:44;;;;;;;14.10;7.68;;;;;;;16.29;100.00;100592.72;5015384;28;20181;-69
2022/09/24 10:52:43;;;;;;;15.25;7.07;;;;;;;16.07;100.00;100597.44;4994928;28;20041;-69
2022/09/24 10:55:18;;;;;;;14.70;6.20;;;;;;;15.83;100.00;100592.06;5009156;28;20513;-68
2022/09/24 10:58:05;;;;;;;14.32;7.28;;;;;;;15.55;100.00;100592.88;5010127;28;20080;-68
2022/09/24 11:00:33;;;;;;;15.48;6.85;;;;;;;15.63;100.00;100590.94;5005645;28;20029;-70
2022/09/24 11:03:35;;;;;;;15.20;6.82;;;;;;;15.57;100.00;100601.41;5014611;28;20041;-68
2022/09/24 11:06:07;;;;;;;;;;;;;;;15.48;100.00;100598.34;5009584;28;20113;-68
2022/09/24 11:08:44;;;;;;;15.90;7.47;;;;;;;15.65;100.00;100599.47;5009000;28;19924;-68
2022/09/24 11:11:10;;;;;;;16.83;7.85;;;;;;;15.72;100.00;100602.94;4984011;28;20041;-68
2022/09/24 11:14:10;;;;;;;17.15;7.25;;;;;;;15.90;100.00;100600.97;5010627;28;20374;-68
2022/09/24 11:16:49;;;;;;;16.42;7.53;;;;;;;16.01;100.00;100599.00;5009114;28;20063;-68
2022/09/24 11:19:52;;;;;;;14.40;6.90;;;;;;;16.08;100.00;100599.00;5002740;28;20084;-69
2022/09/24 11:22:44;;;;;;;18.98;7.82;;;;;;;16.29;100.00;100595.44;5010448;28;20135;-68
2022/09/24 11:25:24;;;;;;;;;;;;;;;16.31;100.00;100592.31;5006462;28;20038;-68
2022/09/24 11:28:04;;;;;;;16.13;7.40;;;;;;;16.26;100.00;100596.19;4999266;28;19921;-69
2022/09/24 11:30:46;;;;;;;16.42;7.45;;;;;;;15.74;100.00;100588.97;5022677;28;20482;-68
2022/09/24 11:33:47;;;;;;;14.55;6.68;;;;;;;15.91;100.00;100591.66;5006841;28;20033;-68
2022/09/24 11:36:38;;;;;;;15.73;6.90;;;;;;;16.06;100.00;100595.91;4989636;28;20580;-68
2022/09/24 11:39:23;;;;;;;14.13;6.93;;;;;;;16.19;100.00;100594.31;5011219;28;20287;-68
2022/09/24 11:42:05;;;;;;;16.08;6.43;;;;;;;16.24;100.00;100591.16;4996752;28;20029;-68
2022/09/24 11:44:46;;;;;;;17.00;6.43;;;;;;;16.06;100.00;100587.75;5007988;28;20036;-68